CST,Max TemperatureF,Mean TemperatureF,Min TemperatureF,Max Dew PointF,MeanDew PointF,Min DewpointF,Max Humidity, Mean Humidity, Min Humidity, Max Sea Level PressureIn, Mean Sea Level PressureIn, Min Sea Level PressureIn, Max VisibilityMiles, Mean VisibilityMiles, Min VisibilityMiles, Max Wind SpeedMPH, Mean Wind SpeedMPH, Max Gust SpeedMPH,PrecipitationIn, CloudCover, Events, WindDirDegrees
2012-11-1,48,37,28,31,24,15,73,56,41,29.97,29.88,29.84,10,10,10,16,8,24,0.00,6,,313
2012-11-2,43,34,27,28,26,23,85,70,51,30.22,30.11,29.98,10,10,10,10,7,,0.00,0,,9
2012-11-3,42,34,27,28,26,23,85,71,57,30.29,30.26,30.22,10,10,10,12,5,,0.00,2,,37
2012-11-4,39,32,25,28,25,21,92,75,57,30.30,30.27,30.24,10,10,8,9,3,,0.00,0,,32
2012-11-5,39,32,26,30,26,21,87,76,58,30.28,30.22,30.12,10,10,10,13,4,,0.00,6,,30
2012-11-6,39,34,28,34,32,25,93,87,67,30.12,29.93,29.85,10,5,2,15,7,22,0.07,8,Rain,174
2012-11-7,42,38,32,37,35,29,93,86,76,30.17,30.08,29.91,9,4,1,7,2,,0.00,8,,322
2012-11-8,46,40,34,35,34,32,96,80,61,30.18,30.12,30.05,10,7,5,14,5,22,0.00,4,,191
2012-11-9,46,40,34,43,39,31,93,84,76,30.12,30.07,30.03,5,4,3,10,7,,0.00,8,,77
2012-11-10,64,54,44,54,46,40,93,80,56,30.07,29.89,29.70,10,6,2,26,10,36,0.00,5,Rain,118
2012-11-11,63,49,35,55,48,32,96,80,64,29.87,29.72,29.60,10,7,2,26,17,38,0.76,6,Rain,212
2012-11-12,33,30,26,29,18,14,85,68,59,30.32,30.07,29.88,10,9,2,15,11,26,0.00,7,Snow,260
2012-11-13,37,29,21,23,19,14,81,69,54,30.48,30.44,30.33,10,10,10,12,7,,0.00,1,,220
2012-11-14,45,38,30,29,27,23,79,66,51,30.48,30.40,30.34,10,10,10,21,12,28,0.00,4,,188
2012-11-15,51,42,33,33,29,27,78,68,46,30.38,30.31,30.26,10,10,7,14,11,,0.00,2,,204
2012-11-16,43,36,27,34,30,24,92,78,67,30.52,30.48,30.38,10,10,7,14,8,,0.00,2,,39
2012-11-17,53,38,24,36,31,21,100,84,52,30.53,30.48,30.44,9,3,0,13,4,,0.00,1,Fog,186
2012-11-18,55,42,30,36,32,28,93,73,38,30.43,30.37,30.29,10,6,2,14,6,,0.00,0,,172
2012-11-19,53,44,34,43,36,29,89,74,54,30.28,30.18,30.08,9,7,3,12,5,17,0.06,4,,178
2012-11-20,55,45,35,45,40,34,100,84,57,30.16,30.11,30.06,7,4,2,7,3,,0.00,3,,236
2012-11-21,55,42,30,42,36,28,100,87,60,30.18,30.10,29.96,10,3,0,18,7,28,0.00,1,Fog,196
2012-11-22,61,51,41,45,40,30,80,66,47,29.94,29.75,29.63,10,9,6,26,17,38,0.00,2,,217
2012-11-23,37,30,24,27,17,12,71,61,54,30.23,30.00,29.74,10,10,9,26,18,40,0.00,8,Snow,300
2012-11-24,28,26,23,20,13,10,69,60,49,30.27,30.16,29.93,10,10,10,16,10,26,0.00,6,,265
2012-11-25,36,32,27,22,20,11,78,64,47,30.12,29.93,29.82,10,9,2,15,8,22,0.00,6,Snow,282
2012-11-26,28,22,14,20,13,6,75,62,45,30.41,30.28,30.12,10,10,8,16,5,20,0.00,3,Snow,299
2012-11-27,32,21,10,14,10,5,80,59,40,30.41,30.32,30.20,10,10,10,13,5,21,0.00,3,,227
2012-11-28,36,28,21,22,17,13,74,62,48,30.37,30.29,30.21,10,10,10,12,6,18,0.00,1,,245
2012-11-29,42,33,24,30,27,20,87,74,55,30.21,30.17,30.12,10,9,7,15,7,20,0.00,2,,92
2012-11-30,37,36,35,35,33,31,93,88,82,30.25,30.19,30.11,8,5,2,14,11,,0.00,8,,59